createdAt,value
2023-01-03T00:02:19.832Z,81.15
2023-01-03T00:04:49.431Z,81.66
2023-01-03T00:07:34.353Z,81.96
2023-01-03T00:10:02.288Z,81.51
2023-01-03T00:12:31.267Z,81.71
2023-01-03T00:14:59.598Z,81.75
2023-01-03T00:17:27.440Z,81.70
2023-01-03T00:19:55.188Z,81.47
2023-01-03T00:22:22.946Z,81.80
2023-01-03T00:24:50.736Z,81.27
2023-01-03T00:27:18.401Z,81.07
2023-01-03T00:29:46.188Z,81.78
2023-01-03T00:32:13.906Z,80.87
2023-01-03T00:34:41.675Z,81.45
2023-01-03T00:37:10.036Z,80.71
2023-01-03T00:39:37.813Z,81.14
2023-01-03T00:42:05.583Z,81.09
2023-01-03T00:44:33.333Z,81.50
2023-01-03T00:47:01.451Z,81.45
2023-01-03T00:49:29.556Z,81.65
2023-01-03T00:51:57.304Z,81.60
2023-01-03T00:54:24.950Z,82.03
2023-01-03T00:56:52.632Z,81.92
2023-01-03T00:59:21.331Z,82.16
2023-01-03T01:01:49.470Z,82.27
2023-01-03T01:04:17.197Z,82.15
2023-01-03T01:06:44.896Z,81.90
2023-01-03T01:09:12.574Z,82.00
2023-01-03T01:11:40.550Z,82.39
2023-01-03T01:14:20.423Z,82.21
2023-01-03T01:16:48.012Z,81.82
2023-01-03T01:19:15.635Z,82.17
2023-01-03T01:21:43.564Z,81.85
2023-01-03T01:24:15.906Z,82.02
2023-01-03T01:26:45.842Z,82.12
2023-01-03T01:29:13.518Z,81.59
2023-01-03T01:31:41.284Z,81.89
2023-01-03T01:34:09.303Z,81.81
2023-01-03T01:36:37.752Z,82.11
2023-01-03T01:39:05.879Z,82.11
2023-01-03T01:41:51.050Z,81.99
2023-01-03T01:44:35.986Z,82.32
2023-01-03T01:47:03.660Z,82.31
2023-01-03T01:49:31.644Z,81.85
2023-01-03T01:51:59.246Z,82.49
2023-01-03T01:54:26.892Z,82.01
2023-01-03T01:56:54.497Z,82.00
2023-01-03T01:59:22.290Z,81.82
2023-01-03T02:01:50.299Z,81.81
2023-01-03T02:04:17.944Z,81.95
2023-01-03T02:06:45.549Z,81.92
2023-01-03T02:09:13.201Z,81.66
2023-01-03T02:11:40.960Z,81.53
2023-01-03T02:14:08.958Z,81.96
2023-01-03T02:16:36.646Z,81.09
2023-01-03T02:19:04.272Z,81.45
2023-01-03T02:21:31.873Z,81.41
2023-01-03T02:24:00.111Z,81.53
2023-01-03T02:26:28.193Z,81.57
2023-01-03T02:28:55.752Z,81.37
2023-01-03T02:31:25.552Z,81.75
2023-01-03T02:33:53.178Z,81.66
2023-01-03T02:36:20.926Z,81.34
2023-01-03T02:38:48.551Z,81.56
2023-01-03T02:41:17.028Z,81.62
2023-01-03T02:43:46.651Z,81.97
2023-01-03T02:46:15.085Z,81.63
2023-01-03T02:48:42.926Z,81.75
2023-01-03T02:51:10.897Z,81.92
2023-01-03T02:53:38.558Z,81.65
2023-01-03T02:56:06.116Z,82.34
2023-01-03T02:58:33.731Z,81.58
2023-01-03T03:01:02.102Z,81.93
2023-01-03T03:03:30.080Z,81.81
2023-01-03T03:05:57.711Z,81.81
2023-01-03T03:08:25.640Z,81.70
2023-01-03T03:11:10.529Z,81.78
2023-01-03T03:13:38.492Z,81.43
2023-01-03T03:16:06.170Z,81.32
2023-01-03T03:18:33.787Z,81.11
2023-01-03T03:21:18.936Z,81.39
2023-01-03T03:24:04.039Z,81.28
2023-01-03T03:26:31.670Z,80.91
2023-01-03T03:28:58.566Z,80.88
2023-01-03T03:31:26.245Z,81.01
2023-01-03T03:33:53.913Z,81.10
2023-01-03T03:36:21.913Z,81.33
2023-01-03T03:38:52.623Z,81.16
2023-01-03T03:41:37.625Z,80.92
2023-01-03T03:44:22.557Z,81.26
2023-01-03T03:46:54.638Z,81.51
2023-01-03T03:49:41.127Z,81.55
2023-01-03T03:52:08.750Z,81.42
2023-01-03T03:54:36.356Z,81.19
2023-01-03T03:57:04.351Z,81.57
2023-01-03T03:59:31.934Z,81.64
2023-01-03T04:01:59.873Z,82.01
2023-01-03T04:04:27.528Z,81.68
2023-01-03T04:06:55.148Z,81.75
2023-01-03T04:09:23.095Z,81.78
2023-01-03T04:11:50.991Z,82.18
2023-01-03T04:14:18.801Z,82.13
2023-01-03T04:16:46.366Z,81.92
2023-01-03T04:19:13.955Z,82.00
2023-01-03T04:21:41.901Z,82.05
2023-01-03T04:24:09.461Z,81.99
2023-01-03T04:26:37.058Z,82.59
2023-01-03T04:29:04.692Z,82.17
2023-01-03T04:31:32.286Z,82.02
2023-01-03T04:34:00.573Z,82.28
2023-01-03T04:36:28.198Z,81.92
2023-01-03T04:38:55.939Z,82.20
2023-01-03T04:41:23.528Z,81.95
2023-01-03T04:44:02.654Z,82.03
2023-01-03T04:46:30.181Z,81.93
2023-01-03T04:48:57.721Z,81.99
2023-01-03T04:51:25.321Z,81.99
2023-01-03T04:53:52.891Z,81.90
2023-01-03T04:56:20.806Z,81.89
2023-01-03T04:58:48.589Z,81.83
2023-01-03T05:01:16.328Z,82.26
2023-01-03T05:03:44.015Z,82.32
2023-01-03T05:06:12.299Z,82.53
2023-01-03T05:08:40.462Z,82.08
2023-01-03T05:11:08.061Z,82.64
2023-01-03T05:13:35.661Z,82.74
2023-01-03T05:16:03.571Z,82.70
2023-01-03T05:18:31.180Z,82.81
2023-01-03T05:21:16.169Z,82.47
2023-01-03T05:24:01.032Z,82.13
2023-01-03T05:26:28.838Z,82.11
2023-01-03T05:28:56.363Z,81.95
2023-01-03T05:31:24.367Z,82.15
2023-01-03T05:33:51.988Z,82.74
2023-01-03T05:36:19.823Z,81.98
2023-01-03T05:38:47.590Z,81.91
2023-01-03T05:41:35.152Z,81.97
2023-01-03T05:44:02.693Z,81.70
2023-01-03T05:46:30.302Z,81.75
2023-01-03T05:48:58.085Z,81.67
2023-01-03T05:51:25.669Z,81.75
2023-01-03T05:53:53.600Z,81.74
2023-01-03T05:56:21.505Z,81.75
2023-01-03T05:58:49.293Z,81.46
2023-01-03T06:01:17.006Z,81.86
2023-01-03T06:03:44.663Z,82.10
2023-01-03T06:06:12.631Z,82.01
2023-01-03T06:08:40.199Z,82.16
2023-01-03T06:11:07.849Z,82.66
2023-01-03T06:13:35.967Z,82.45
2023-01-03T06:16:22.882Z,82.85
2023-01-03T06:18:52.154Z,82.88
2023-01-03T06:21:19.803Z,82.82
2023-01-03T06:23:47.816Z,83.17
2023-01-03T06:26:15.649Z,82.96
2023-01-03T06:28:45.722Z,83.34
2023-01-03T06:31:13.330Z,83.33
2023-01-03T06:33:40.998Z,83.15
2023-01-03T06:36:08.806Z,82.63
2023-01-03T06:38:36.721Z,83.25
2023-01-03T06:41:04.337Z,82.83
2023-01-03T06:43:32.116Z,83.16
2023-01-03T06:46:17.155Z,82.96
2023-01-03T06:49:02.093Z,82.44
2023-01-03T06:51:47.762Z,82.69
2023-01-03T06:54:15.363Z,82.75
2023-01-03T06:56:42.953Z,82.39
2023-01-03T06:59:10.920Z,82.46
2023-01-03T07:01:38.680Z,82.42
2023-01-03T07:04:06.804Z,82.23
2023-01-03T07:06:34.411Z,82.27
2023-01-03T07:09:02.069Z,81.99
2023-01-03T07:11:29.671Z,82.20
2023-01-03T07:13:59.380Z,82.20
2023-01-03T07:16:27.055Z,82.43
2023-01-03T07:18:55.644Z,81.93
2023-01-03T07:21:23.406Z,82.35
2023-01-03T07:23:51.085Z,82.49
2023-01-03T07:26:18.694Z,82.72
2023-01-03T07:28:46.681Z,82.60
2023-01-03T07:31:14.621Z,82.43
2023-01-03T07:33:42.346Z,82.15
2023-01-03T07:36:12.151Z,82.09
2023-01-03T07:38:40.133Z,82.41
2023-01-03T07:41:08.678Z,82.04
2023-01-03T07:43:38.382Z,81.59
2023-01-03T07:46:06.539Z,81.65
2023-01-03T07:48:34.197Z,81.45
2023-01-03T07:51:01.982Z,81.44
2023-01-03T07:53:30.064Z,81.22
2023-01-03T07:55:57.748Z,80.89
2023-01-03T07:58:25.415Z,80.81
2023-01-03T08:00:53.146Z,80.72
2023-01-03T08:03:20.785Z,80.95
2023-01-03T08:05:49.037Z,80.57
2023-01-03T08:08:16.764Z,80.71
2023-01-03T08:11:01.829Z,80.47
2023-01-03T08:13:29.508Z,80.61
2023-01-03T08:15:57.607Z,79.93
2023-01-03T08:18:25.298Z,80.30
2023-01-03T08:20:55.596Z,80.51
2023-01-03T08:23:23.439Z,80.01
2023-01-03T08:25:52.321Z,80.21
2023-01-03T08:28:20.318Z,80.40
2023-01-03T08:30:47.909Z,80.08
2023-01-03T08:33:15.559Z,79.91
2023-01-03T08:35:43.384Z,80.02
2023-01-03T08:38:11.140Z,80.68
2023-01-03T08:40:42.122Z,79.76
2023-01-03T08:43:10.429Z,80.11
2023-01-03T08:45:38.101Z,79.97
2023-01-03T08:48:06.451Z,80.34
2023-01-03T08:50:34.812Z,80.19
2023-01-03T08:53:02.838Z,80.21
2023-01-03T08:55:30.535Z,80.19
2023-01-03T08:58:00.095Z,80.11
2023-01-03T09:00:27.772Z,80.80
2023-01-03T09:02:55.846Z,79.86
2023-01-03T09:05:24.354Z,80.11
2023-01-03T09:07:52.443Z,80.22
2023-01-03T09:10:20.210Z,80.08
2023-01-03T09:12:48.176Z,79.78
2023-01-03T09:15:15.917Z,79.65
2023-01-03T09:17:45.456Z,79.43
2023-01-03T09:20:13.434Z,79.36
2023-01-03T09:22:41.303Z,79.67
2023-01-03T09:25:09.075Z,79.31
2023-01-03T09:27:37.046Z,79.13
2023-01-03T09:30:05.475Z,78.63
2023-01-03T09:32:33.142Z,78.22
2023-01-03T09:35:01.105Z,77.99
2023-01-03T09:37:29.011Z,78.18
2023-01-03T09:39:57.183Z,77.93
2023-01-03T09:42:42.988Z,77.46
2023-01-03T09:45:10.759Z,77.54
2023-01-03T09:47:38.382Z,77.40
2023-01-03T09:53:11.818Z,77.29
2023-01-03T09:55:56.400Z,76.67
2023-01-03T09:58:41.331Z,76.01
2023-01-03T10:01:26.597Z,75.56
2023-01-03T10:03:55.575Z,75.02
2023-01-03T10:06:23.357Z,74.35
2023-01-03T10:08:51.274Z,74.45
2023-01-03T10:11:19.283Z,74.49
2023-01-03T10:13:47.112Z,74.69
2023-01-03T10:16:15.228Z,75.38
2023-01-03T10:18:43.062Z,75.54
2023-01-03T10:21:10.802Z,75.59
2023-01-03T10:23:38.764Z,75.27
2023-01-03T10:26:06.464Z,73.72
2023-01-03T10:28:34.797Z,72.88
2023-01-03T10:31:07.635Z,72.88
2023-01-03T10:33:36.364Z,74.04
2023-01-03T10:36:04.321Z,74.75
2023-01-03T10:38:35.584Z,76.05
2023-01-03T10:41:09.198Z,76.78
2023-01-03T10:43:37.097Z,77.53
2023-01-03T10:46:05.014Z,77.82
2023-01-03T10:48:45.708Z,77.27
2023-01-03T10:51:20.982Z,74.61
2023-01-03T10:53:49.336Z,72.80
2023-01-03T10:56:17.358Z,70.97
2023-01-03T10:58:45.335Z,70.31
2023-01-03T11:01:13.541Z,71.08
2023-01-03T11:03:51.040Z,71.45
2023-01-03T11:06:19.583Z,72.23
2023-01-03T11:08:47.333Z,73.38
2023-01-03T11:11:15.135Z,73.21
2023-01-03T11:13:43.426Z,72.42
2023-01-03T11:16:11.564Z,72.26
2023-01-03T11:18:39.593Z,71.60
2023-01-03T11:21:07.492Z,71.91
2023-01-03T11:23:35.417Z,71.42
2023-01-03T11:26:03.567Z,70.10
2023-01-03T11:28:31.914Z,70.18
2023-01-03T11:30:59.784Z,70.66
2023-01-03T11:33:29.751Z,70.86
2023-01-03T11:35:58.344Z,70.77
2023-01-03T11:38:26.490Z,70.24
2023-01-03T11:40:54.939Z,71.46
2023-01-03T11:43:23.083Z,72.15
2023-01-03T11:45:51.078Z,73.24
2023-01-03T11:48:18.972Z,71.77
2023-01-03T11:50:46.947Z,71.59
2023-01-03T11:53:15.207Z,70.58
2023-01-03T11:55:43.076Z,69.33
2023-01-03T11:58:11.334Z,69.18
2023-01-03T12:00:39.300Z,67.85
2023-01-03T12:03:07.582Z,67.40
2023-01-03T12:05:36.261Z,67.16
2023-01-03T12:08:03.968Z,67.33
2023-01-03T12:10:31.901Z,67.50
2023-01-03T12:13:00.034Z,68.72
2023-01-03T12:15:28.065Z,70.13
2023-01-03T12:17:56.458Z,71.04
2023-01-03T12:20:24.412Z,71.16
2023-01-03T12:22:52.340Z,71.17
2023-01-03T12:25:20.338Z,72.03
2023-01-03T12:27:48.422Z,72.12
2023-01-03T12:30:16.688Z,72.08
2023-01-03T12:32:44.745Z,72.25
2023-01-03T12:35:12.738Z,72.34
2023-01-03T12:37:40.533Z,72.44
2023-01-03T12:40:09.087Z,72.02
2023-01-03T12:42:37.939Z,72.29
2023-01-03T12:45:05.882Z,71.71
2023-01-03T12:47:33.711Z,71.88
2023-01-03T12:50:01.801Z,72.07
2023-01-03T12:52:29.973Z,71.75
2023-01-03T12:54:58.120Z,72.05
2023-01-03T12:57:26.241Z,71.30
2023-01-03T12:59:54.075Z,71.81
2023-01-03T13:02:23.094Z,71.76
2023-01-03T13:04:51.903Z,71.55
2023-01-03T13:07:20.397Z,72.08
2023-01-03T13:09:48.373Z,71.24
2023-01-03T13:12:16.340Z,70.98
2023-01-03T13:14:44.204Z,71.41
2023-01-03T13:17:12.073Z,70.85
2023-01-03T13:19:40.392Z,70.33
2023-01-03T13:22:08.291Z,70.95
2023-01-03T13:24:36.178Z,70.72
2023-01-03T13:27:04.519Z,70.55
2023-01-03T13:29:32.698Z,70.26
2023-01-03T13:32:01.169Z,69.58
2023-01-03T13:34:29.079Z,69.44
2023-01-03T13:36:57.274Z,69.73
2023-01-03T13:39:25.139Z,70.20
2023-01-03T13:41:53.366Z,70.46
2023-01-03T13:44:22.123Z,70.44
2023-01-03T13:46:50.144Z,70.96
2023-01-03T13:49:18.239Z,71.15
2023-01-03T13:51:46.493Z,71.44
2023-01-03T13:54:14.711Z,72.06
2023-01-03T13:56:43.175Z,71.49
2023-01-03T13:59:11.111Z,71.87
2023-01-03T14:01:39.027Z,71.71
2023-01-03T14:04:08.698Z,72.19
2023-01-03T14:06:36.913Z,71.65
2023-01-03T14:09:05.152Z,72.33
2023-01-03T14:11:33.685Z,71.65
2023-01-03T14:14:01.528Z,72.22
2023-01-03T14:16:29.599Z,72.22
2023-01-03T14:18:57.867Z,72.50
2023-01-03T14:21:26.405Z,72.61
2023-01-03T14:24:02.122Z,72.29
2023-01-03T14:26:30.387Z,71.23
2023-01-03T14:28:58.366Z,70.72
2023-01-03T14:31:27.532Z,71.18
2023-01-03T14:33:55.618Z,70.73
2023-01-03T14:36:23.464Z,71.59
2023-01-03T14:38:51.510Z,71.76
2023-01-03T14:41:20.206Z,72.03
2023-01-03T14:43:48.111Z,72.80
2023-01-03T14:46:15.989Z,72.75
2023-01-03T14:48:44.042Z,72.86
2023-01-03T14:51:11.941Z,73.04
2023-01-03T14:53:40.469Z,73.08
2023-01-03T14:56:08.314Z,72.77
2023-01-03T14:58:36.311Z,73.42
2023-01-03T15:01:04.397Z,73.93
2023-01-03T15:03:32.464Z,73.54
2023-01-03T15:06:01.293Z,73.71
2023-01-03T15:08:29.704Z,74.47
2023-01-03T15:10:59.938Z,73.99
2023-01-03T15:13:28.299Z,74.56
2023-01-03T15:15:56.331Z,74.60
2023-01-03T15:18:25.396Z,74.82
2023-01-03T15:20:53.271Z,74.78
2023-01-03T15:23:21.064Z,74.94
2023-01-03T15:25:48.908Z,75.55
2023-01-03T15:28:16.827Z,75.42
2023-01-03T15:30:45.114Z,75.91
2023-01-03T15:33:13.095Z,75.34
2023-01-03T15:35:41.477Z,76.08
2023-01-03T15:38:09.248Z,75.68
2023-01-03T15:40:37.758Z,75.82
2023-01-03T15:43:20.553Z,75.55
2023-01-03T15:45:48.914Z,75.27
2023-01-03T15:48:16.719Z,75.46
2023-01-03T15:50:44.690Z,75.18
2023-01-03T15:53:12.657Z,75.02
2023-01-03T15:55:41.108Z,74.45
2023-01-03T15:58:08.979Z,75.21
2023-01-03T16:00:37.053Z,74.32
2023-01-03T16:03:05.189Z,74.63
2023-01-03T16:05:33.187Z,75.04
2023-01-03T16:08:01.781Z,75.26
2023-01-03T16:10:29.979Z,75.11
2023-01-03T16:12:57.713Z,75.61
2023-01-03T16:15:25.696Z,75.83
2023-01-03T16:17:53.605Z,75.51
2023-01-03T16:20:21.963Z,75.70
2023-01-03T16:22:59.855Z,76.19
2023-01-03T16:25:29.253Z,76.64
2023-01-03T16:27:57.224Z,76.76
2023-01-03T16:30:26.108Z,76.34
2023-01-03T16:32:55.280Z,76.73
2023-01-03T16:35:23.388Z,77.22
2023-01-03T16:37:51.850Z,77.32
2023-01-03T16:40:19.845Z,77.00
2023-01-03T16:42:48.805Z,77.42
2023-01-03T16:45:17.778Z,77.76
2023-01-03T16:47:45.614Z,77.56
2023-01-03T16:50:13.589Z,77.96
2023-01-03T16:52:41.473Z,77.96
2023-01-03T16:55:09.906Z,78.37
2023-01-03T16:57:38.403Z,78.57
2023-01-03T17:00:06.524Z,78.40
2023-01-03T17:02:34.540Z,78.62
2023-01-03T17:05:03.004Z,78.64
2023-01-03T17:07:31.572Z,78.49
2023-01-03T17:09:59.695Z,78.63
2023-01-03T17:12:27.594Z,78.52
2023-01-03T17:14:55.801Z,78.40
2023-01-03T17:17:23.621Z,78.31
2023-01-03T17:20:07.340Z,78.43
2023-01-03T17:22:35.344Z,78.09
2023-01-03T17:25:03.276Z,78.00
2023-01-03T17:27:33.164Z,78.26
2023-01-03T17:30:02.190Z,78.18
2023-01-03T17:32:30.875Z,77.88
2023-01-03T17:34:58.800Z,78.01
2023-01-03T17:37:26.706Z,78.02
2023-01-03T17:39:54.927Z,77.72
2023-01-03T17:42:23.469Z,77.25
2023-01-03T17:45:05.185Z,77.45
2023-01-03T17:47:50.503Z,77.59
2023-01-03T17:50:18.613Z,76.96
2023-01-03T17:52:51.978Z,76.70
2023-01-03T17:55:23.524Z,76.84
2023-01-03T17:57:51.477Z,76.82
2023-01-03T18:00:19.475Z,76.58
2023-01-03T18:02:48.484Z,76.01
2023-01-03T18:05:24.335Z,76.49
2023-01-03T18:07:54.917Z,76.09
2023-01-03T18:10:22.988Z,76.05
2023-01-03T18:12:51.514Z,75.74
2023-01-03T18:15:19.608Z,76.17
2023-01-03T18:17:47.540Z,75.58
2023-01-03T18:20:15.309Z,75.51
2023-01-03T18:22:43.270Z,75.53
2023-01-03T18:25:14.134Z,75.79
2023-01-03T18:27:44.549Z,75.34
2023-01-03T18:30:12.341Z,75.38
2023-01-03T18:32:40.277Z,75.45
2023-01-03T18:35:08.254Z,74.85
2023-01-03T18:37:36.653Z,74.83
2023-01-03T18:40:04.442Z,74.71
2023-01-03T18:42:50.272Z,74.76
2023-01-03T18:45:18.443Z,74.96
2023-01-03T18:47:46.717Z,74.24
2023-01-03T18:50:14.835Z,74.01
2023-01-03T18:52:42.590Z,74.26
2023-01-03T18:55:10.424Z,74.40
2023-01-03T18:57:38.719Z,74.62
2023-01-03T19:00:08.095Z,74.23
2023-01-03T19:02:36.308Z,74.33
2023-01-03T19:05:05.066Z,74.62
2023-01-03T19:07:32.901Z,74.11
2023-01-03T19:10:00.927Z,74.25
2023-01-03T19:12:29.012Z,74.27
2023-01-03T19:14:56.850Z,73.85
2023-01-03T19:17:24.692Z,74.24
2023-01-03T19:19:52.753Z,73.65
2023-01-03T19:22:21.010Z,73.92
2023-01-03T19:24:49.225Z,73.67
2023-01-03T19:27:17.519Z,74.12
2023-01-03T19:29:45.408Z,73.49
2023-01-03T19:32:13.282Z,73.61
2023-01-03T19:34:41.412Z,73.56
2023-01-03T19:37:09.654Z,73.22
2023-01-03T19:39:37.990Z,73.68
2023-01-03T19:42:23.456Z,73.66
2023-01-03T19:44:51.730Z,73.61
2023-01-03T19:47:20.715Z,73.22
2023-01-03T19:49:48.710Z,73.36
2023-01-03T19:52:16.495Z,73.37
2023-01-03T19:54:44.347Z,73.90
2023-01-03T19:57:12.733Z,73.62
2023-01-03T19:59:40.968Z,73.65
2023-01-03T20:02:25.617Z,73.71
2023-01-03T20:04:54.099Z,73.74
2023-01-03T20:07:23.908Z,73.11
2023-01-03T20:09:52.131Z,73.37
2023-01-03T20:12:20.154Z,73.59
2023-01-03T20:14:48.047Z,73.56
2023-01-03T20:17:16.123Z,73.47
2023-01-03T20:19:44.393Z,73.71
2023-01-03T20:22:30.511Z,73.36
2023-01-03T20:25:00.550Z,73.29
2023-01-03T20:27:28.927Z,73.41
2023-01-03T20:29:56.815Z,73.18
2023-01-03T20:32:25.784Z,73.96
2023-01-03T20:34:53.627Z,73.37
2023-01-03T20:37:21.555Z,73.58
2023-01-03T20:39:49.617Z,73.59
2023-01-03T20:42:17.432Z,73.63
2023-01-03T20:44:45.617Z,73.38
2023-01-03T20:47:13.750Z,73.34
2023-01-03T20:49:41.643Z,73.53
2023-01-03T20:52:09.483Z,73.63
2023-01-03T20:54:38.120Z,73.43
2023-01-03T20:57:06.597Z,73.96
2023-01-03T20:59:34.452Z,73.59
2023-01-03T21:02:02.952Z,73.56
2023-01-03T21:04:30.990Z,73.27
2023-01-03T21:06:59.015Z,73.26
2023-01-03T21:09:27.328Z,73.71
2023-01-03T21:11:55.723Z,73.34
2023-01-03T21:14:23.620Z,73.40
2023-01-03T21:16:51.563Z,72.88
2023-01-03T21:19:20.290Z,73.23
2023-01-03T21:21:48.750Z,72.99
2023-01-03T21:24:16.749Z,73.00
2023-01-03T21:26:44.647Z,73.24
2023-01-03T21:29:12.676Z,72.80
2023-01-03T21:31:40.891Z,73.08
2023-01-03T21:34:09.089Z,73.21
2023-01-03T21:36:36.917Z,73.70
2023-01-03T21:39:04.958Z,73.40
2023-01-03T21:41:32.900Z,73.19
2023-01-03T21:44:00.688Z,73.29
2023-01-03T21:46:29.185Z,73.45
2023-01-03T21:48:57.126Z,73.56
2023-01-03T21:51:35.371Z,73.70
2023-01-03T21:54:06.348Z,73.62
2023-01-03T21:56:36.366Z,73.62
2023-01-03T21:59:04.744Z,73.87
2023-01-03T22:01:53.155Z,73.50
2023-01-03T22:04:19.906Z,73.62
2023-01-03T22:06:48.638Z,73.85
2023-01-03T22:09:30.173Z,73.99
2023-01-03T22:11:58.225Z,73.87
2023-01-03T22:14:26.749Z,73.74
2023-01-03T22:16:55.460Z,73.50
2023-01-03T22:19:23.437Z,73.95
2023-01-03T22:21:51.336Z,73.85
2023-01-03T22:24:19.356Z,74.00
2023-01-03T22:26:47.205Z,73.74
2023-01-03T22:29:15.581Z,74.00
2023-01-03T22:31:43.534Z,73.75
2023-01-03T22:34:11.520Z,73.87
2023-01-03T22:36:39.852Z,73.90
2023-01-03T22:39:07.747Z,74.05
2023-01-03T22:41:35.786Z,74.05
2023-01-03T22:44:03.717Z,73.91
2023-01-03T22:46:31.719Z,74.04
2023-01-03T22:48:59.572Z,74.03
2023-01-03T22:51:27.450Z,74.13
2023-01-03T22:53:56.016Z,74.01
2023-01-03T22:56:23.808Z,74.20
2023-01-03T22:58:52.062Z,74.03
2023-01-03T23:01:20.144Z,74.03
2023-01-03T23:03:50.441Z,74.17
2023-01-03T23:06:18.871Z,73.87
2023-01-03T23:08:47.684Z,74.22
2023-01-03T23:11:34.863Z,74.48
2023-01-03T23:14:03.511Z,74.14
2023-01-03T23:16:32.693Z,73.95
2023-01-03T23:19:00.538Z,73.92
2023-01-03T23:21:28.362Z,74.03
2023-01-03T23:23:56.062Z,73.90
2023-01-03T23:26:23.899Z,73.55
2023-01-03T23:28:52.245Z,73.64
2023-01-03T23:31:20.157Z,73.68
2023-01-03T23:33:47.885Z,73.37
2023-01-03T23:36:15.719Z,73.74
2023-01-03T23:38:43.643Z,73.67
2023-01-03T23:41:13.407Z,73.27
2023-01-03T23:43:41.294Z,73.55
2023-01-03T23:46:09.067Z,73.86
2023-01-03T23:48:37.059Z,73.78
2023-01-03T23:51:04.843Z,73.32
2023-01-03T23:53:33.165Z,73.14
2023-01-03T23:56:00.895Z,72.98
2023-01-03T23:58:28.699Z,72.77
